WAMT/TTE METAR and TAF weather

Enter ICAO airport designator
Station Type Date Time Source
WAMT METAR UTC NOAA

Error!


Station Type Date Time Source
WAMT Decoded METAR UTC NOAA

Error!

Station Type Date Time Source
WAMT TAF 2014/03/31 18:15 UTC NOAA

TAF WAMT 311700Z 3118/0106 VRB03KT 9000 SCT018
BECMG 0100/0102 33008KT


Example: see airport list